Time;durP1;ratioP1;P1;durP2;ratioP2;P2;SDS_P1;SDS_P2;PMS_P1;PMS_P2;Temp;Humidity;BMP_temperature;BMP_pressure;BME280_temperature;BME280_humidity;BME280_pressure;Samples;Min_cycle;Max_cycle;Signal;HPM_P1;HPM_P2
2022/01/08 00:02:32;;;;;;;22.00;9.40;;;;;;;-4.84;67.34;98611.45;219410;1281;22970;-70
2022/01/08 00:07:51;;;;;;;27.30;10.20;;;;;;;-4.85;67.11;98604.08;219370;1280;24389;-71
2022/01/08 00:12:56;;;;;;;35.20;15.30;;;;;;;-4.93;67.24;98596.40;219310;1281;24835;-71
2022/01/08 00:17:59;;;;;;;45.30;15.90;;;;;;;-5.02;67.23;98596.64;219374;1280;22774;-71
2022/01/08 00:23:04;;;;;;;36.50;17.30;;;;;;;-5.07;67.45;98600.48;219474;1279;22735;-71
2022/01/08 00:28:06;;;;;;;42.00;15.90;;;;;;;-5.08;67.65;98597.86;219353;1281;22819;-70
2022/01/08 00:33:12;;;;;;;34.20;15.70;;;;;;;-5.11;67.80;98602.60;219376;1281;22662;-71
2022/01/08 00:38:28;;;;;;;37.30;14.00;;;;;;;-5.19;68.00;98602.98;219696;1279;22775;-70
2022/01/08 00:43:43;;;;;;;48.00;16.60;;;;;;;-5.29;67.87;98596.48;218467;1279;22917;-71
2022/01/08 00:48:46;;;;;;;47.30;18.10;;;;;;;-5.42;67.87;98594.63;219454;1281;22643;-74
2022/01/08 00:53:52;;;;;;;41.70;16.60;;;;;;;-5.51;68.04;98590.45;218516;1279;24598;-69
2022/01/08 00:59:17;;;;;;;33.90;15.40;;;;;;;-5.54;68.20;98587.70;219544;1278;22634;-68
2022/01/08 01:04:24;;;;;;;37.30;14.60;;;;;;;-5.59;68.31;98579.07;219719;1278;22705;-71
2022/01/08 01:09:26;;;;;;;39.40;15.20;;;;;;;-5.64;68.33;98574.24;219407;1279;25727;-73
2022/01/08 01:14:29;;;;;;;41.40;17.60;;;;;;;-5.69;68.33;98565.65;219670;1279;25761;-69
2022/01/08 01:19:31;;;;;;;49.30;18.40;;;;;;;-5.75;68.28;98561.88;218581;1279;25474;-70
2022/01/08 01:24:42;;;;;;;47.00;18.30;;;;;;;-5.76;68.49;98554.52;218641;1279;25276;-67
2022/01/08 01:30:06;;;;;;;40.40;16.00;;;;;;;-5.73;68.72;98548.43;218727;1279;25586;-71
2022/01/08 01:51:18;;;;;;;35.10;14.90;;;;;;;-5.92;68.85;98522.55;219249;1279;22789;-70
2022/01/08 01:56:27;;;;;;;33.10;12.90;;;;;;;-5.92;68.73;98524.11;219676;1279;22623;-71
2022/01/08 02:01:57;;;;;;;36.60;13.90;;;;;;;-5.93;68.86;98520.60;218394;1279;23131;-70
2022/01/08 02:07:17;;;;;;;32.80;13.50;;;;;;;-5.92;69.01;98515.93;218564;1279;25526;-70
2022/01/08 02:12:42;;;;;;;30.20;13.00;;;;;;;-5.90;68.97;98506.27;218393;1279;22860;-70
2022/01/08 02:18:04;;;;;;;38.40;14.80;;;;;;;-5.91;68.93;98497.84;219661;1279;25657;-70
2022/01/08 02:23:09;;;;;;;25.90;11.60;;;;;;;-5.93;69.03;98486.10;219757;1279;22887;-69
2022/01/08 02:28:17;;;;;;;32.30;12.00;;;;;;;-5.94;68.97;98479.71;219380;1281;25641;-70
2022/01/08 02:33:27;;;;;;;26.50;11.60;;;;;;;-5.95;69.18;98475.25;219633;1279;22789;-70
2022/01/08 02:38:29;;;;;;;26.20;12.30;;;;;;;-5.94;69.29;98476.23;218523;1279;22669;-70
2022/01/08 02:43:45;;;;;;;33.70;12.30;;;;;;;-5.95;69.35;98472.91;218462;1279;24253;-71
2022/01/08 02:49:06;;;;;;;34.10;13.40;;;;;;;-5.98;69.44;98465.99;218589;1279;23077;-70
2022/01/08 02:54:13;;;;;;;33.10;13.80;;;;;;;-6.02;69.41;98457.69;218343;1279;22911;-70
2022/01/08 02:59:21;;;;;;;36.70;14.60;;;;;;;-6.06;69.46;98460.79;218415;1279;24805;-71
2022/01/08 03:04:31;;;;;;;36.00;15.60;;;;;;;-6.10;69.87;98455.90;219750;1279;25685;-70
2022/01/08 03:09:38;;;;;;;38.50;14.30;;;;;;;-6.08;70.18;98452.02;219460;1279;26031;-71
2022/01/08 03:14:44;;;;;;;28.30;12.00;;;;;;;-6.08;70.30;98451.67;219579;1279;24254;-71
2022/01/08 03:19:53;;;;;;;26.30;12.20;;;;;;;-6.10;70.35;98450.72;219514;1279;22866;-71
2022/01/08 03:25:13;;;;;;;25.90;11.20;;;;;;;-6.16;70.33;98434.16;219533;1279;22784;-70
2022/01/08 03:30:21;;;;;;;32.40;14.50;;;;;;;-6.17;70.45;98429.71;219280;1279;22911;-70
2022/01/08 03:35:23;;;;;;;28.30;13.60;;;;;;;-6.19;70.54;98430.20;218362;1279;25740;-71
2022/01/08 03:40:28;;;;;;;27.20;12.60;;;;;;;-6.16;70.81;98425.67;218381;1279;22964;-70
2022/01/08 03:45:30;;;;;;;25.80;10.60;;;;;;;-6.16;70.95;98410.80;218361;1279;24455;-70
2022/01/08 03:50:33;;;;;;;25.90;11.40;;;;;;;-6.18;71.08;98409.74;218366;1279;22991;-70
2022/01/08 03:55:51;;;;;;;21.70;10.30;;;;;;;-6.19;71.24;98413.16;218403;1279;22936;-70
2022/01/08 04:00:59;;;;;;;17.70;9.30;;;;;;;-6.21;71.37;98411.55;218266;1279;24273;-70
2022/01/08 04:06:25;;;;;;;24.90;10.90;;;;;;;-6.21;71.45;98408.08;218520;1279;22936;-70
2022/01/08 04:11:30;;;;;;;22.20;11.40;;;;;;;-6.18;71.65;98397.30;218421;1279;24305;-70
2022/01/08 04:16:35;;;;;;;23.40;10.00;;;;;;;-6.14;71.82;98397.34;218710;1279;24419;-71
2022/01/08 04:22:10;;;;;;;;;;;;;;;;;;;;;
2022/01/08 04:27:37;;;;;;;30.50;11.90;;;;;;;-6.06;71.94;98398.33;218489;1279;24830;-70
2022/01/08 04:33:28;;;;;;;19.80;8.70;;;;;;;-5.99;72.15;98383.98;218361;1279;27548;-70
2022/01/08 04:38:53;;;;;;;20.10;9.30;;;;;;;-5.92;72.31;98381.64;219440;1279;22831;-72
2022/01/08 04:43:55;;;;;;;18.50;8.60;;;;;;;-5.85;72.37;98374.38;219484;1279;22680;-70
2022/01/08 04:49:00;;;;;;;18.80;9.30;;;;;;;-5.76;72.51;98378.76;218465;1279;26511;-70
2022/01/08 04:54:06;;;;;;;16.90;8.50;;;;;;;-5.67;72.49;98382.88;218273;1279;25655;-70
2022/01/08 04:59:11;;;;;;;17.70;8.90;;;;;;;-5.57;72.63;98392.96;218124;1281;26842;-69
2022/01/08 05:04:14;;;;;;;24.00;12.10;;;;;;;-5.46;72.60;98393.70;218378;1279;23574;-70
2022/01/08 05:09:23;;;;;;;22.50;11.00;;;;;;;-5.31;72.68;98395.15;218463;1279;22739;-70
2022/01/08 05:14:36;;;;;;;15.80;8.50;;;;;;;-5.18;72.76;98394.50;218444;1279;22811;-71
2022/01/08 05:19:50;;;;;;;18.50;9.10;;;;;;;-5.06;72.66;98387.02;219456;1279;22730;-70
2022/01/08 05:24:54;;;;;;;14.00;7.80;;;;;;;-4.93;72.69;98389.39;219514;1279;22740;-71
2022/01/08 05:30:20;;;;;;;17.30;9.40;;;;;;;-4.82;72.63;98389.69;219661;1279;25524;-70
2022/01/08 05:35:25;;;;;;;15.40;8.40;;;;;;;-4.67;72.62;98396.23;218669;1279;25685;-70
2022/01/08 05:40:40;;;;;;;22.20;9.00;;;;;;;-4.54;72.52;98399.18;218720;1279;22707;-69
2022/01/08 05:45:53;;;;;;;15.20;6.70;;;;;;;-4.41;72.57;98406.27;218474;1279;22693;-70
2022/01/08 05:51:18;;;;;;;10.30;6.10;;;;;;;-4.30;72.44;98399.80;218669;1279;22748;-70
2022/01/08 05:56:26;;;;;;;10.30;5.90;;;;;;;-4.17;72.33;98389.90;218765;1279;26946;-71
2022/01/08 06:01:41;;;;;;;15.50;6.70;;;;;;;-4.03;72.38;98389.09;218540;1279;25377;-68
2022/01/08 06:06:49;;;;;;;11.30;6.80;;;;;;;-3.90;72.22;98386.65;218688;1278;22704;-70
2022/01/08 06:12:01;;;;;;;10.40;6.10;;;;;;;-3.78;71.96;98388.60;218513;1279;26835;-70
2022/01/08 06:17:19;;;;;;;;;;;;;;;;;;;;;
2022/01/08 06:22:49;;;;;;;8.80;5.80;;;;;;;-3.58;71.48;98393.80;219521;1279;22717;-69
2022/01/08 06:28:12;;;;;;;;;;;;;;;;;;;;;
2022/01/08 06:34:05;;;;;;;12.70;5.10;;;;;;;-3.38;71.06;98386.64;218616;1279;24408;-71
2022/01/08 06:39:30;;;;;;;7.20;4.90;;;;;;;-3.33;70.61;98386.98;219632;1279;24692;-70
2022/01/08 06:45:15;;;;;;;10.20;5.20;;;;;;;-3.26;70.50;98387.81;219157;1279;22801;-71
2022/01/08 06:50:20;;;;;;;7.90;5.10;;;;;;;-3.18;70.24;98385.88;218703;1279;24215;-70
2022/01/08 06:55:36;;;;;;;10.90;5.70;;;;;;;-3.12;69.92;98380.11;218610;1279;22817;-70
2022/01/08 07:01:28;;;;;;;10.20;5.80;;;;;;;-3.03;69.94;98383.51;218443;1279;25805;-70
2022/01/08 07:06:52;;;;;;;12.50;6.30;;;;;;;-2.99;69.92;98377.77;219526;1279;25573;-70
2022/01/08 07:12:08;;;;;;;8.90;5.40;;;;;;;-2.92;70.03;98382.92;219643;1279;25302;-70
2022/01/08 07:17:25;;;;;;;8.80;5.40;;;;;;;-2.83;69.72;98377.27;219637;1279;22698;-71
2022/01/08 07:22:48;;;;;;;10.20;5.10;;;;;;;-2.78;69.46;98374.30;218459;1279;25653;-72
2022/01/08 07:28:05;;;;;;;10.70;5.10;;;;;;;-2.70;69.27;98373.20;218599;1279;23865;-69
2022/01/08 07:33:15;;;;;;;12.00;5.20;;;;;;;-2.61;69.03;98379.78;218891;1279;22648;-70
2022/01/08 07:39:00;;;;;;;;;;;;;;;;;;;;;
2022/01/08 07:44:26;;;;;;;14.40;6.80;;;;;;;-2.42;68.94;98368.02;219428;1278;25641;-70
2022/01/08 07:49:44;;;;;;;10.10;5.80;;;;;;;-2.31;68.44;98370.20;219598;1279;22580;-70
2022/01/08 07:54:53;;;;;;;12.90;6.10;;;;;;;-2.27;67.72;98372.08;218496;1279;22712;-70
2022/01/08 07:59:58;;;;;;;12.60;6.00;;;;;;;-2.25;67.19;98372.98;218861;1279;22762;-70
2022/01/08 08:05:33;;;;;;;;;;;;;;;;;;;;;
2022/01/08 08:11:26;;;;;;;13.20;6.30;;;;;;;-2.12;67.29;98373.72;219658;1279;25085;-70
2022/01/08 08:16:48;;;;;;;12.30;6.70;;;;;;;-2.04;66.54;98373.17;219677;1279;24978;-70
2022/01/08 08:21:53;;;;;;;15.70;6.30;;;;;;;-2.00;66.74;98379.48;219390;1279;114069;-71
2022/01/08 08:26:55;;;;;;;12.50;6.30;;;;;;;-1.94;66.74;98379.30;219784;1279;25578;-70
2022/01/08 08:32:21;;;;;;;13.20;6.40;;;;;;;-1.82;66.77;98388.84;218574;1279;24469;-71
2022/01/08 08:37:26;;;;;;;12.90;6.90;;;;;;;-1.76;66.25;98395.44;218693;1279;25610;-71
2022/01/08 08:42:59;;;;;;;12.80;6.70;;;;;;;-1.71;66.27;98391.15;219023;1279;22611;-69
2022/01/08 08:48:18;;;;;;;13.20;5.90;;;;;;;-1.67;66.16;98385.24;218880;1279;24257;-71
2022/01/08 08:53:27;;;;;;;11.80;5.90;;;;;;;-1.63;65.54;98387.52;219898;1279;24286;-70
2022/01/08 08:58:33;;;;;;;12.40;6.80;;;;;;;-1.59;65.60;98393.01;218965;1279;24242;-70
2022/01/08 09:03:49;;;;;;;12.20;6.20;;;;;;;-1.51;65.79;98396.39;219814;1279;22547;-70
2022/01/08 09:09:58;;;;;;;14.40;6.90;;;;;;;-1.41;65.42;98399.16;219702;1278;24260;-70
2022/01/08 09:15:55;;;;;;;11.70;6.50;;;;;;;-1.27;65.40;98394.20;218724;1279;25260;-70
2022/01/08 09:21:10;;;;;;;12.60;6.30;;;;;;;-1.14;64.06;98387.36;219404;1279;25274;-71
2022/01/08 09:26:24;;;;;;;11.10;5.50;;;;;;;-1.13;63.65;98388.64;219077;1279;22676;-69
2022/01/08 09:31:29;;;;;;;11.00;5.60;;;;;;;-1.16;63.17;98385.73;218604;1279;25287;-71
2022/01/08 09:37:03;;;;;;;;;;;;;;;;;;;;;
2022/01/08 09:42:50;;;;;;;;;;;;;;;;;;;;;
2022/01/08 09:48:45;;;;;;;9.90;6.10;;;;;;;-0.96;63.78;98375.00;218713;1279;25519;-71
2022/01/08 09:54:34;;;;;;;14.00;7.00;;;;;;;-0.84;63.55;98373.17;218622;1279;22667;-70
2022/01/08 10:00:18;;;;;;;13.30;5.90;;;;;;;-0.67;63.68;98370.52;218672;1279;22486;-70
2022/01/08 10:06:26;;;;;;;10.70;5.70;;;;;;;-0.60;63.32;98369.71;218692;1277;25286;-70
2022/01/08 10:11:53;;;;;;;11.40;6.70;;;;;;;-0.54;62.65;98362.49;218585;1279;23185;-71
2022/01/08 10:17:47;;;;;;;11.40;6.30;;;;;;;-0.46;62.57;98362.77;218472;1279;25401;-69
2022/01/08 10:23:21;;;;;;;12.30;6.80;;;;;;;-0.34;62.82;98354.17;219632;1279;22572;-70
2022/01/08 10:29:17;;;;;;;13.90;7.10;;;;;;;-0.25;62.64;98349.59;218838;1279;22572;-69
2022/01/08 10:35:45;;;;;;;14.60;6.60;;;;;;;-0.25;62.36;98344.76;219748;1279;23406;-71
2022/01/08 10:41:24;;;;;;;14.50;6.90;;;;;;;-0.21;62.42;98342.41;218815;1279;22490;-70
2022/01/08 10:47:18;;;;;;;10.90;6.80;;;;;;;-0.19;62.16;98344.85;219534;1279;25438;-68
2022/01/08 10:52:48;;;;;;;13.40;7.00;;;;;;;-0.26;62.56;98342.25;218676;1279;24325;-70
2022/01/08 10:58:41;;;;;;;13.50;7.30;;;;;;;-0.24;63.34;98344.08;218901;1279;22551;-71
2022/01/08 11:04:07;;;;;;;17.60;7.80;;;;;;;-0.17;63.32;98342.35;218983;1279;22641;-71
2022/01/08 11:09:12;;;;;;;13.00;7.50;;;;;;;-0.15;63.05;98334.95;219531;1279;25822;-70
2022/01/08 11:14:44;;;;;;;14.70;7.50;;;;;;;-0.15;62.96;98339.00;219650;1279;22927;-70
2022/01/08 11:20:00;;;;;;;13.90;7.00;;;;;;;-0.16;62.63;98336.98;218756;1279;22555;-69
2022/01/08 11:26:00;;;;;;;;;;;;;;;;;;;;;
2022/01/08 11:32:05;;;;;;;15.80;7.40;;;;;;;-0.29;63.23;98336.48;218486;1279;22579;-69
2022/01/08 11:37:32;;;;;;;13.60;7.90;;;;;;;-0.27;63.37;98335.27;218452;1279;24294;-70
2022/01/08 11:42:45;;;;;;;11.80;6.90;;;;;;;-0.26;63.35;98332.87;218953;1279;22626;-69
2022/01/08 11:48:10;;;;;;;13.90;7.40;;;;;;;-0.28;63.63;98331.98;218729;1279;23914;-69
2022/01/08 11:53:32;;;;;;;14.70;7.40;;;;;;;-0.32;63.62;98324.87;218613;1279;22579;-70
2022/01/08 11:59:36;;;;;;;;;;;;;;;;;;;;;
2022/01/08 12:05:03;;;;;;;13.50;6.80;;;;;;;-0.36;63.82;98312.53;218609;1279;23410;-70
2022/01/08 12:11:42;;;;;;;16.70;8.20;;;;;;;-0.34;64.11;98308.42;218654;1279;24292;-70
2022/01/08 12:17:20;;;;;;;18.30;8.10;;;;;;;-0.37;64.30;98307.52;217895;1281;22579;-70
2022/01/08 12:23:13;;;;;;;17.10;7.70;;;;;;;-0.39;64.27;98313.20;218604;1279;22559;-70
2022/01/08 12:29:47;;;;;;;13.30;6.90;;;;;;;-0.46;64.54;98313.14;218718;1279;22738;-69
2022/01/08 12:35:54;;;;;;;17.70;9.10;;;;;;;-0.41;64.97;98308.90;219564;1279;23152;-69
2022/01/08 12:42:54;;;;;;;14.80;7.90;;;;;;;-0.36;64.98;98291.60;218386;1279;24524;-70
2022/01/08 12:48:18;;;;;;;13.40;6.90;;;;;;;-0.36;64.99;98287.71;219122;1279;22622;-70
2022/01/08 12:54:21;;;;;;;;;;;;;;;;;;;;;
2022/01/08 12:59:58;;;;;;;13.50;7.60;;;;;;;-0.39;65.00;98285.90;218527;1279;22718;-70
2022/01/08 13:05:20;;;;;;;17.60;7.90;;;;;;;-0.42;65.00;98285.14;218792;1279;22557;-69
2022/01/08 13:11:19;;;;;;;15.00;7.60;;;;;;;-0.43;65.22;98275.16;218661;1279;22579;-70
2022/01/08 13:16:57;;;;;;;16.70;8.20;;;;;;;-0.43;65.30;98280.22;219284;1279;25263;-70
2022/01/08 13:22:34;;;;;;;;;;;;;;;;;;;;;
2022/01/08 13:27:59;;;;;;;15.00;8.10;;;;;;;-0.40;65.85;98273.91;219597;1279;24348;-70
2022/01/08 13:39:09;;;;;;;16.70;8.90;;;;;;;-0.35;65.01;98256.48;218731;1279;24813;-69
2022/01/08 13:45:03;;;;;;;21.40;9.90;;;;;;;-0.36;65.24;98249.25;218756;1279;25413;-70
2022/01/08 13:51:09;;;;;;;18.10;9.10;;;;;;;-0.38;65.36;98240.38;219635;1279;22617;-69
2022/01/08 14:02:03;;;;;;;21.40;10.40;;;;;;;-0.39;65.45;98227.09;218693;1279;22730;-70
2022/01/08 14:08:01;;;;;;;14.80;8.40;;;;;;;-0.40;65.59;98217.66;218778;1279;22583;-71
2022/01/08 14:13:28;;;;;;;17.70;8.20;;;;;;;-0.40;65.32;98212.59;219692;1279;22593;-70
2022/01/08 14:18:39;;;;;;;19.10;8.60;;;;;;;-0.40;65.57;98213.09;218547;1279;25393;-70
2022/01/08 14:24:59;;;;;;;;;;;;;;;;;;;;;
2022/01/08 14:30:43;;;;;;;23.80;10.80;;;;;;;-0.36;65.90;98193.63;219482;1279;23756;-70
2022/01/08 14:36:21;;;;;;;20.60;9.80;;;;;;;-0.41;65.50;98193.99;219628;1279;22601;-70
2022/01/08 14:42:10;;;;;;;38.50;20.70;;;;;;;-0.51;65.67;98189.11;219521;1279;23049;-70
2022/01/08 14:47:56;;;;;;;23.60;10.50;;;;;;;-0.54;65.85;98201.63;219602;1279;22737;-69
2022/01/08 14:53:58;;;;;;;23.90;10.90;;;;;;;-0.55;66.01;98204.52;218294;1277;25607;-70
2022/01/08 15:00:22;;;;;;;30.70;13.10;;;;;;;-0.58;66.11;98208.27;218550;1279;22752;-69
2022/01/08 15:06:32;;;;;;;23.80;11.10;;;;;;;-0.60;66.21;98214.92;218558;1279;25714;-71
2022/01/08 15:12:00;;;;;;;19.30;10.40;;;;;;;-0.59;65.89;98216.13;218686;1279;23219;-70
2022/01/08 15:18:09;;;;;;;;;;;;;;;;;;;;;
2022/01/08 15:24:21;;;;;;;22.80;11.00;;;;;;;-0.60;66.31;98220.56;219540;1279;24227;-69
2022/01/08 15:31:17;;;;;;;;;;;;;;;;;;;;;
2022/01/08 15:37:43;;;;;;;22.90;11.70;;;;;;;-0.59;66.60;98218.73;219352;1279;22557;-71
2022/01/08 15:51:22;;;;;;;23.10;11.20;;;;;;;-0.58;66.81;98203.58;218223;1279;24182;-69
2022/01/08 16:04:48;;;;;;;;;;;;;;;;;;;;;
2022/01/08 16:25:14;;;;;;;27.30;13.30;;;;;;;-0.72;67.35;98180.65;218263;1279;25488;-69
2022/01/08 16:32:07;;;;;;;26.10;12.70;;;;;;;-0.76;67.44;98171.83;217424;1281;22758;-70
2022/01/08 16:38:53;;;;;;;23.30;11.90;;;;;;;-0.77;67.59;98157.19;218208;1281;25559;-70
2022/01/08 16:45:40;;;;;;;29.30;12.80;;;;;;;-0.91;67.48;98146.88;218099;1281;22585;-69
2022/01/08 16:57:22;;;;;;;;;;;;;;;;;;;;;
2022/01/08 17:16:46;;;;;;;32.40;15.70;;;;;;;-1.91;69.28;98111.95;218021;1281;24359;-69
2022/01/08 17:22:54;;;;;;;38.70;17.30;;;;;;;-1.99;69.65;98106.13;218396;1281;22587;-69
2022/01/08 17:29:08;;;;;;;42.80;18.30;;;;;;;-2.05;69.90;98095.63;218388;1281;22567;-69
2022/01/08 17:34:30;;;;;;;40.10;19.30;;;;;;;-2.15;70.18;98084.27;219343;1280;25438;-70
2022/01/08 17:40:08;;;;;;;41.60;18.80;;;;;;;-2.26;70.17;98076.38;218741;1279;22707;-70
2022/01/08 17:46:36;;;;;;;;;;;;;;;;;;;;;
2022/01/08 17:52:54;;;;;;;39.10;18.20;;;;;;;-2.48;70.71;98064.61;218660;1280;24355;-68
2022/01/08 17:58:27;;;;;;;42.90;18.80;;;;;;;-2.57;70.88;98059.84;218625;1281;22554;-69
2022/01/08 18:04:15;;;;;;;40.90;17.20;;;;;;;-2.65;71.36;98051.19;218509;1281;25401;-70
2022/01/08 18:10:19;;;;;;;40.80;18.10;;;;;;;-2.71;71.67;98046.62;218464;1281;25438;-70
2022/01/08 18:15:46;;;;;;;40.20;18.10;;;;;;;-2.74;71.83;98050.93;218610;1279;22591;-70
2022/01/08 18:21:48;;;;;;;;;;;;;;;;;;;;;
2022/01/08 18:27:13;;;;;;;45.50;20.70;;;;;;;-2.79;72.25;98060.34;218399;1281;23001;-69
2022/01/08 18:33:07;;;;;;;;;;;;;;;;;;;;;
2022/01/08 18:38:42;;;;;;;57.40;23.30;;;;;;;-2.84;72.55;98062.58;218651;1279;25455;-69
2022/01/08 18:44:18;;;;;;;58.90;23.70;;;;;;;-2.90;72.46;98053.28;218670;1280;22630;-70
2022/01/08 18:49:54;;;;;;;52.10;23.50;;;;;;;-3.04;72.24;98052.83;219367;1281;22768;-69
2022/01/08 18:55:28;;;;;;;58.40;26.00;;;;;;;-3.18;72.32;98049.73;219745;1278;25919;-70
2022/01/08 19:01:10;;;;;;;;;;;;;;;;;;;;;
2022/01/08 19:06:36;;;;;;;57.20;25.00;;;;;;;-3.29;72.79;98047.23;218563;1279;25530;-70
2022/01/08 19:12:17;;;;;;;58.40;26.40;;;;;;;-3.31;73.08;98038.94;218518;1281;22975;-70
2022/01/08 19:18:06;;;;;;;59.50;26.20;;;;;;;-3.33;73.10;98032.91;218266;1279;22756;-70
2022/01/08 19:23:50;;;;;;;56.40;25.80;;;;;;;-3.35;73.05;98027.75;218496;1279;24309;-71
2022/01/08 19:29:46;;;;;;;;;;;;;;;;;;;;;
2022/01/08 19:35:51;;;;;;;59.50;27.80;;;;;;;-3.37;73.36;98024.73;218355;1279;24327;-70
2022/01/08 19:41:10;;;;;;;59.40;28.00;;;;;;;-3.40;73.18;98020.90;218454;1279;22652;-71
2022/01/08 19:46:16;;;;;;;74.30;31.00;;;;;;;-3.46;73.25;98015.76;219592;1279;22636;-70
2022/01/08 19:51:40;;;;;;;73.20;31.50;;;;;;;-3.53;73.17;98008.52;219609;1280;22874;-69
2022/01/08 19:57:12;;;;;;;77.50;32.60;;;;;;;-3.60;73.18;98004.27;219597;1279;22830;-71
2022/01/08 20:02:58;;;;;;;82.00;33.40;;;;;;;-3.66;73.45;97999.65;219656;1280;22609;-70
2022/01/08 20:08:14;;;;;;;79.10;32.00;;;;;;;-3.63;73.61;97990.13;219629;1279;22799;-70
2022/01/08 20:13:26;;;;;;;73.30;30.20;;;;;;;-3.55;73.73;97990.02;219575;1279;22600;-69
2022/01/08 20:19:12;;;;;;;68.20;27.60;;;;;;;-3.44;73.88;97980.04;219135;1279;212747;-70
2022/01/08 20:24:45;;;;;;;63.00;22.80;;;;;;;-3.27;73.87;97968.58;219333;1279;26120;-71
2022/01/08 20:30:31;;;;;;;50.20;20.00;;;;;;;-3.08;73.70;97959.79;219589;1279;25497;-71
2022/01/08 20:36:09;;;;;;;47.40;22.60;;;;;;;-2.93;73.63;97943.69;219640;1278;25746;-71
2022/01/08 20:42:08;;;;;;;67.50;25.00;;;;;;;-2.85;73.22;97929.90;218458;1279;26464;-69
2022/01/08 20:47:15;;;;;;;63.40;26.00;;;;;;;-2.86;72.98;97921.50;219685;1279;22629;-70
2022/01/08 20:52:41;;;;;;;70.10;26.60;;;;;;;-2.93;72.93;97915.02;219743;1279;22722;-71
2022/01/08 20:57:45;;;;;;;54.50;24.10;;;;;;;-2.98;72.99;97899.84;219743;1279;22555;-71
2022/01/08 21:03:03;;;;;;;;;;;;;;;;;;;;;
2022/01/08 21:08:35;;;;;;;;;;;;;;;;;;;;;
2022/01/08 21:14:42;;;;;;;61.60;24.10;;;;;;;-2.72;73.14;97876.27;219746;1279;23590;-70
2022/01/08 21:26:32;;;;;;;51.10;22.10;;;;;;;-2.38;72.92;97863.19;219070;1279;22579;-70
2022/01/08 21:31:37;;;;;;;54.30;22.00;;;;;;;-2.24;72.89;97860.00;219625;1279;22565;-71
2022/01/08 21:37:12;;;;;;;;;;;;;;;;;;;;;
2022/01/08 21:42:33;;;;;;;41.90;18.90;;;;;;;-2.01;72.71;97842.51;219516;1279;24625;-70
2022/01/08 21:48:17;;;;;;;46.30;19.60;;;;;;;-1.95;72.38;97843.64;219706;1279;23555;-69
2022/01/08 21:54:38;;;;;;;;;;;;;;;;;;;;;
2022/01/08 22:00:03;;;;;;;49.60;19.80;;;;;;;-1.88;72.27;97836.69;218627;1279;22624;-70
2022/01/08 22:05:35;;;;;;;52.30;22.00;;;;;;;-1.87;71.96;97822.42;218620;1279;22578;-70
2022/01/08 22:10:51;;;;;;;57.80;23.70;;;;;;;-1.88;71.77;97814.00;218729;1279;26608;-70
2022/01/08 22:16:06;;;;;;;52.40;22.90;;;;;;;-1.92;71.71;97805.75;218500;1279;25573;-70
2022/01/08 22:21:25;;;;;;;57.90;24.30;;;;;;;-1.96;71.88;97798.63;218605;1279;22670;-70
2022/01/08 22:26:57;;;;;;;53.50;22.30;;;;;;;-1.98;72.15;97793.70;218539;1279;23827;-70
2022/01/08 22:32:05;;;;;;;54.50;25.00;;;;;;;-2.00;72.04;97788.83;219783;1278;23324;-70
2022/01/08 22:37:11;;;;;;;51.50;22.80;;;;;;;-2.00;72.20;97783.00;219681;1279;25381;-71
2022/01/08 22:48:55;;;;;;;45.10;20.10;;;;;;;-2.00;72.13;97767.67;218681;1279;25376;-71
2022/01/08 22:55:10;;;;;;;44.80;20.80;;;;;;;-2.01;72.21;97761.10;219409;1279;24255;-70
2022/01/08 23:00:46;;;;;;;49.60;22.50;;;;;;;-1.98;72.16;97754.10;219488;1279;25467;-69
2022/01/08 23:12:37;;;;;;;51.70;23.50;;;;;;;-1.90;72.28;97749.13;218454;1279;23091;-71
2022/01/08 23:17:49;;;;;;;55.90;24.20;;;;;;;-1.83;72.44;97737.13;218649;1279;22620;-70
2022/01/08 23:29:52;;;;;;;56.60;21.20;;;;;;;-1.72;72.36;97722.27;219279;1279;22949;-69
2022/01/08 23:35:12;;;;;;;48.70;19.80;;;;;;;-1.67;72.33;97709.34;218576;1279;24264;-69
2022/01/08 23:41:21;;;;;;;49.50;22.00;;;;;;;-1.61;72.32;97701.04;219469;1279;22596;-70
2022/01/08 23:52:28;;;;;;;41.40;20.10;;;;;;;-1.57;72.33;97688.83;218572;1279;25454;-70
2022/01/08 23:57:35;;;;;;;47.10;21.40;;;;;;;-1.60;71.76;97689.14;218493;1279;23898;-69
